sensor_id;sensor_type;location;lat;lon;timestamp;P1;durP1;ratioP1;P2;durP2;ratioP2
61704;SDS011;47627;48.078;11.522;2023-06-04T06:50:55;6.35;;;3.30;;
61704;SDS011;47627;48.078;11.522;2023-06-04T06:53:21;6.55;;;3.75;;
61704;SDS011;47627;48.078;11.522;2023-06-04T06:55:46;3.85;;;3.20;;
61704;SDS011;47627;48.078;11.522;2023-06-04T06:58:11;5.75;;;3.42;;
61704;SDS011;47627;48.078;11.522;2023-06-04T07:00:37;6.07;;;3.65;;
61704;SDS011;47627;48.078;11.522;2023-06-04T07:03:02;4.18;;;3.10;;
61704;SDS011;47627;48.078;11.522;2023-06-04T07:05:29;6.05;;;3.58;;
61704;SDS011;47627;48.078;11.522;2023-06-04T07:07:54;4.28;;;2.45;;
61704;SDS011;47627;48.078;11.522;2023-06-04T07:10:19;5.55;;;2.80;;
61704;SDS011;47627;48.078;11.522;2023-06-04T07:12:44;5.28;;;2.53;;
61704;SDS011;47627;48.078;11.522;2023-06-04T07:15:10;5.82;;;2.65;;
61704;SDS011;47627;48.078;11.522;2023-06-04T07:17:35;3.05;;;2.30;;
61704;SDS011;47627;48.078;11.522;2023-06-04T07:20:01;4.60;;;2.60;;
61704;SDS011;47627;48.078;11.522;2023-06-04T07:22:26;3.97;;;2.78;;
61704;SDS011;47627;48.078;11.522;2023-06-04T07:27:33;3.95;;;2.25;;
61704;SDS011;47627;48.078;11.522;2023-06-04T07:29:59;5.07;;;2.60;;
61704;SDS011;47627;48.078;11.522;2023-06-04T07:32:24;4.03;;;2.00;;
61704;SDS011;47627;48.078;11.522;2023-06-04T07:34:49;4.97;;;2.40;;
61704;SDS011;47627;48.078;11.522;2023-06-04T07:37:15;3.95;;;2.10;;
61704;SDS011;47627;48.078;11.522;2023-06-04T07:39:40;4.03;;;1.98;;
61704;SDS011;47627;48.078;11.522;2023-06-04T07:42:05;5.38;;;2.45;;
61704;SDS011;47627;48.078;11.522;2023-06-04T07:44:32;3.53;;;2.50;;
61704;SDS011;47627;48.078;11.522;2023-06-04T07:46:57;3.83;;;2.35;;
61704;SDS011;47627;48.078;11.522;2023-06-04T07:49:22;5.27;;;2.20;;
61704;SDS011;47627;48.078;11.522;2023-06-04T07:51:48;5.63;;;2.37;;
61704;SDS011;47627;48.078;11.522;2023-06-04T08:13:06;5.90;;;2.65;;
61704;SDS011;47627;48.078;11.522;2023-06-04T08:18:13;9.10;;;2.47;;
61704;SDS011;47627;48.078;11.522;2023-06-04T08:20:38;2.38;;;2.15;;
61704;SDS011;47627;48.078;11.522;2023-06-04T08:23:04;3.17;;;2.07;;
61704;SDS011;47627;48.078;11.522;2023-06-04T08:25:29;2.75;;;2.00;;
61704;SDS011;47627;48.078;11.522;2023-06-04T08:27:55;5.72;;;2.80;;
61704;SDS011;47627;48.078;11.522;2023-06-04T08:30:20;3.95;;;2.60;;
61704;SDS011;47627;48.078;11.522;2023-06-04T08:32:46;3.10;;;2.63;;
61704;SDS011;47627;48.078;11.522;2023-06-04T08:35:11;5.10;;;2.70;;
61704;SDS011;47627;48.078;11.522;2023-06-04T08:37:36;4.80;;;2.50;;
61704;SDS011;47627;48.078;11.522;2023-06-04T08:40:02;3.13;;;2.15;;
61704;SDS011;47627;48.078;11.522;2023-06-04T08:42:30;4.75;;;2.47;;
61704;SDS011;47627;48.078;11.522;2023-06-04T08:44:56;5.22;;;2.80;;
61704;SDS011;47627;48.078;11.522;2023-06-04T08:47:21;4.43;;;2.70;;
61704;SDS011;47627;48.078;11.522;2023-06-04T08:49:51;6.63;;;2.67;;
61704;SDS011;47627;48.078;11.522;2023-06-04T08:52:17;3.97;;;2.42;;
61704;SDS011;47627;48.078;11.522;2023-06-04T08:54:42;4.20;;;2.30;;
61704;SDS011;47627;48.078;11.522;2023-06-04T08:57:08;3.80;;;2.55;;
61704;SDS011;47627;48.078;11.522;2023-06-04T08:59:33;6.57;;;2.38;;
61704;SDS011;47627;48.078;11.522;2023-06-04T09:01:59;4.45;;;2.42;;
61704;SDS011;47627;48.078;11.522;2023-06-04T09:04:24;4.57;;;3.22;;
61704;SDS011;47627;48.078;11.522;2023-06-04T09:06:50;4.75;;;2.90;;
61704;SDS011;47627;48.078;11.522;2023-06-04T09:09:16;3.50;;;2.47;;
61704;SDS011;47627;48.078;11.522;2023-06-04T09:11:48;7.15;;;2.70;;
61704;SDS011;47627;48.078;11.522;2023-06-04T09:14:14;4.22;;;2.60;;
61704;SDS011;47627;48.078;11.522;2023-06-04T09:16:48;4.72;;;2.40;;
61704;SDS011;47627;48.078;11.522;2023-06-04T09:19:14;4.20;;;2.70;;
61704;SDS011;47627;48.078;11.522;2023-06-04T09:21:52;5.15;;;2.72;;
61704;SDS011;47627;48.078;11.522;2023-06-04T09:24:20;5.60;;;2.90;;
61704;SDS011;47627;48.078;11.522;2023-06-04T09:26:46;6.22;;;2.88;;
61704;SDS011;47627;48.078;11.522;2023-06-04T09:29:11;6.15;;;2.67;;
61704;SDS011;47627;48.078;11.522;2023-06-04T09:31:37;4.13;;;2.65;;
61704;SDS011;47627;48.078;11.522;2023-06-04T09:34:03;5.70;;;2.92;;
61704;SDS011;47627;48.078;11.522;2023-06-04T09:36:32;5.20;;;2.75;;
61704;SDS011;47627;48.078;11.522;2023-06-04T09:38:58;4.70;;;2.95;;
61704;SDS011;47627;48.078;11.522;2023-06-04T09:41:23;6.28;;;2.70;;
61704;SDS011;47627;48.078;11.522;2023-06-04T09:43:49;3.67;;;2.60;;
61704;SDS011;47627;48.078;11.522;2023-06-04T09:46:15;6.28;;;3.47;;
61704;SDS011;47627;48.078;11.522;2023-06-04T09:48:41;5.97;;;2.80;;
61704;SDS011;47627;48.078;11.522;2023-06-04T09:51:07;7.18;;;2.85;;
61704;SDS011;47627;48.078;11.522;2023-06-04T09:53:33;4.80;;;3.08;;
61704;SDS011;47627;48.078;11.522;2023-06-04T09:55:58;5.33;;;3.63;;
61704;SDS011;47627;48.078;11.522;2023-06-04T09:58:27;5.50;;;3.08;;
61704;SDS011;47627;48.078;11.522;2023-06-04T10:00:54;4.32;;;2.63;;
61704;SDS011;47627;48.078;11.522;2023-06-04T10:03:20;5.50;;;3.17;;
61704;SDS011;47627;48.078;11.522;2023-06-04T10:05:50;6.30;;;3.10;;
61704;SDS011;47627;48.078;11.522;2023-06-04T10:08:16;5.28;;;3.03;;
61704;SDS011;47627;48.078;11.522;2023-06-04T10:10:42;3.85;;;2.58;;
61704;SDS011;47627;48.078;11.522;2023-06-04T10:13:14;6.78;;;3.00;;
61704;SDS011;47627;48.078;11.522;2023-06-04T10:15:41;7.20;;;3.17;;
61704;SDS011;47627;48.078;11.522;2023-06-04T10:18:07;4.53;;;2.60;;
61704;SDS011;47627;48.078;11.522;2023-06-04T10:20:32;5.13;;;2.78;;
61704;SDS011;47627;48.078;11.522;2023-06-04T10:22:58;4.80;;;2.60;;
61704;SDS011;47627;48.078;11.522;2023-06-04T10:25:23;7.38;;;3.13;;
61704;SDS011;47627;48.078;11.522;2023-06-04T10:27:50;4.23;;;2.40;;
61704;SDS011;47627;48.078;11.522;2023-06-04T10:30:15;4.97;;;3.25;;
61704;SDS011;47627;48.078;11.522;2023-06-04T10:32:40;4.55;;;3.30;;
61704;SDS011;47627;48.078;11.522;2023-06-04T10:35:06;7.32;;;3.08;;
61704;SDS011;47627;48.078;11.522;2023-06-04T10:37:33;7.22;;;3.10;;
61704;SDS011;47627;48.078;11.522;2023-06-04T10:39:58;6.35;;;2.70;;
61704;SDS011;47627;48.078;11.522;2023-06-04T10:42:24;4.50;;;2.83;;
61704;SDS011;47627;48.078;11.522;2023-06-04T10:44:51;5.70;;;2.95;;
61704;SDS011;47627;48.078;11.522;2023-06-04T10:47:23;5.78;;;2.97;;
61704;SDS011;47627;48.078;11.522;2023-06-04T10:49:52;3.92;;;2.78;;
61704;SDS011;47627;48.078;11.522;2023-06-04T10:52:18;3.40;;;2.53;;
61704;SDS011;47627;48.078;11.522;2023-06-04T10:54:44;5.18;;;2.90;;
61704;SDS011;47627;48.078;11.522;2023-06-04T10:57:13;4.78;;;3.03;;
61704;SDS011;47627;48.078;11.522;2023-06-04T10:59:39;3.78;;;2.95;;
61704;SDS011;47627;48.078;11.522;2023-06-04T11:02:05;4.05;;;2.92;;
61704;SDS011;47627;48.078;11.522;2023-06-04T11:04:31;3.75;;;3.22;;
61704;SDS011;47627;48.078;11.522;2023-06-04T11:07:02;4.03;;;2.72;;
61704;SDS011;47627;48.078;11.522;2023-06-04T11:09:29;4.97;;;2.42;;
61704;SDS011;47627;48.078;11.522;2023-06-04T11:11:58;5.63;;;2.50;;
61704;SDS011;47627;48.078;11.522;2023-06-04T11:14:23;4.95;;;3.03;;
61704;SDS011;47627;48.078;11.522;2023-06-04T11:16:49;3.78;;;3.05;;
61704;SDS011;47627;48.078;11.522;2023-06-04T11:19:14;4.27;;;2.93;;
61704;SDS011;47627;48.078;11.522;2023-06-04T11:21:39;4.18;;;2.72;;
61704;SDS011;47627;48.078;11.522;2023-06-04T11:24:05;7.00;;;3.05;;
61704;SDS011;47627;48.078;11.522;2023-06-04T11:26:33;6.70;;;3.20;;
61704;SDS011;47627;48.078;11.522;2023-06-04T11:28:59;5.88;;;3.00;;
61704;SDS011;47627;48.078;11.522;2023-06-04T11:31:24;6.70;;;3.25;;
61704;SDS011;47627;48.078;11.522;2023-06-04T11:33:50;4.40;;;3.10;;
61704;SDS011;47627;48.078;11.522;2023-06-04T11:36:22;4.13;;;3.00;;
61704;SDS011;47627;48.078;11.522;2023-06-04T11:38:57;5.93;;;3.05;;
61704;SDS011;47627;48.078;11.522;2023-06-04T11:41:23;5.50;;;3.03;;
61704;SDS011;47627;48.078;11.522;2023-06-04T11:43:48;6.25;;;3.30;;
61704;SDS011;47627;48.078;11.522;2023-06-04T11:46:14;6.72;;;3.30;;
61704;SDS011;47627;48.078;11.522;2023-06-04T11:48:39;4.10;;;2.75;;
61704;SDS011;47627;48.078;11.522;2023-06-04T11:51:05;3.88;;;2.92;;
61704;SDS011;47627;48.078;11.522;2023-06-04T11:53:31;5.43;;;2.65;;
61704;SDS011;47627;48.078;11.522;2023-06-04T11:55:56;5.95;;;2.90;;
61704;SDS011;47627;48.078;11.522;2023-06-04T11:58:22;6.10;;;2.75;;
61704;SDS011;47627;48.078;11.522;2023-06-04T12:00:48;3.65;;;2.90;;
61704;SDS011;47627;48.078;11.522;2023-06-04T12:03:14;5.65;;;2.75;;
61704;SDS011;47627;48.078;11.522;2023-06-04T12:05:39;5.07;;;2.97;;
61704;SDS011;47627;48.078;11.522;2023-06-04T12:08:05;4.97;;;3.38;;
61704;SDS011;47627;48.078;11.522;2023-06-04T12:10:36;3.83;;;2.58;;
61704;SDS011;47627;48.078;11.522;2023-06-04T12:13:01;5.53;;;2.80;;
61704;SDS011;47627;48.078;11.522;2023-06-04T12:15:26;4.75;;;3.10;;
61704;SDS011;47627;48.078;11.522;2023-06-04T12:17:52;3.97;;;2.57;;
61704;SDS011;47627;48.078;11.522;2023-06-04T12:20:18;4.63;;;2.80;;
61704;SDS011;47627;48.078;11.522;2023-06-04T12:22:44;5.75;;;3.30;;
61704;SDS011;47627;48.078;11.522;2023-06-04T12:25:10;3.22;;;2.78;;
61704;SDS011;47627;48.078;11.522;2023-06-04T12:27:35;3.67;;;3.00;;
61704;SDS011;47627;48.078;11.522;2023-06-04T12:30:11;3.55;;;2.83;;
61704;SDS011;47627;48.078;11.522;2023-06-04T12:32:36;5.35;;;2.65;;
61704;SDS011;47627;48.078;11.522;2023-06-04T12:35:02;4.88;;;2.70;;
61704;SDS011;47627;48.078;11.522;2023-06-04T12:37:27;3.80;;;2.90;;
61704;SDS011;47627;48.078;11.522;2023-06-04T12:39:55;5.10;;;3.70;;
61704;SDS011;47627;48.078;11.522;2023-06-04T12:42:21;3.70;;;2.90;;
61704;SDS011;47627;48.078;11.522;2023-06-04T12:44:46;6.35;;;3.55;;
61704;SDS011;47627;48.078;11.522;2023-06-04T12:47:11;4.40;;;3.10;;
61704;SDS011;47627;48.078;11.522;2023-06-04T12:49:36;4.32;;;3.08;;
61704;SDS011;47627;48.078;11.522;2023-06-04T12:52:02;5.72;;;3.13;;
61704;SDS011;47627;48.078;11.522;2023-06-04T12:54:27;4.03;;;3.28;;
61704;SDS011;47627;48.078;11.522;2023-06-04T12:56:53;4.90;;;2.63;;
61704;SDS011;47627;48.078;11.522;2023-06-04T12:59:18;5.68;;;3.22;;
61704;SDS011;47627;48.078;11.522;2023-06-04T13:01:43;5.78;;;3.03;;
61704;SDS011;47627;48.078;11.522;2023-06-04T13:04:09;4.17;;;3.03;;
61704;SDS011;47627;48.078;11.522;2023-06-04T13:06:36;5.07;;;3.20;;
61704;SDS011;47627;48.078;11.522;2023-06-04T13:09:02;7.18;;;3.17;;
61704;SDS011;47627;48.078;11.522;2023-06-04T13:11:28;5.45;;;3.50;;
61704;SDS011;47627;48.078;11.522;2023-06-04T13:13:54;7.07;;;3.63;;
61704;SDS011;47627;48.078;11.522;2023-06-04T13:16:19;3.60;;;3.30;;
61704;SDS011;47627;48.078;11.522;2023-06-04T13:18:44;3.47;;;3.15;;
61704;SDS011;47627;48.078;11.522;2023-06-04T13:21:09;5.27;;;3.07;;
61704;SDS011;47627;48.078;11.522;2023-06-04T13:23:34;4.13;;;2.97;;
61704;SDS011;47627;48.078;11.522;2023-06-04T13:26:00;4.90;;;2.88;;
61704;SDS011;47627;48.078;11.522;2023-06-04T13:28:26;6.22;;;3.40;;
61704;SDS011;47627;48.078;11.522;2023-06-04T13:30:51;3.85;;;2.90;;
61704;SDS011;47627;48.078;11.522;2023-06-04T13:33:16;3.75;;;2.95;;
61704;SDS011;47627;48.078;11.522;2023-06-04T13:35:44;4.57;;;2.97;;
61704;SDS011;47627;48.078;11.522;2023-06-04T13:38:09;6.40;;;3.15;;
61704;SDS011;47627;48.078;11.522;2023-06-04T13:40:35;4.35;;;3.00;;
61704;SDS011;47627;48.078;11.522;2023-06-04T13:43:01;6.78;;;3.60;;
61704;SDS011;47627;48.078;11.522;2023-06-04T13:45:26;4.53;;;3.33;;
61704;SDS011;47627;48.078;11.522;2023-06-04T13:47:51;4.85;;;3.38;;
61704;SDS011;47627;48.078;11.522;2023-06-04T13:50:16;5.50;;;3.13;;
61704;SDS011;47627;48.078;11.522;2023-06-04T13:52:42;5.00;;;3.00;;
61704;SDS011;47627;48.078;11.522;2023-06-04T13:55:07;6.93;;;3.22;;
61704;SDS011;47627;48.078;11.522;2023-06-04T13:57:33;6.32;;;3.25;;
61704;SDS011;47627;48.078;11.522;2023-06-04T13:59:58;5.40;;;3.40;;
61704;SDS011;47627;48.078;11.522;2023-06-04T14:02:23;5.97;;;3.05;;
61704;SDS011;47627;48.078;11.522;2023-06-04T14:04:52;3.67;;;2.83;;
61704;SDS011;47627;48.078;11.522;2023-06-04T14:07:17;3.97;;;3.22;;
61704;SDS011;47627;48.078;11.522;2023-06-04T14:09:42;6.05;;;2.90;;
61704;SDS011;47627;48.078;11.522;2023-06-04T14:12:08;9.88;;;3.50;;
61704;SDS011;47627;48.078;11.522;2023-06-04T14:14:33;4.30;;;2.80;;
61704;SDS011;47627;48.078;11.522;2023-06-04T14:17:05;4.38;;;2.95;;
61704;SDS011;47627;48.078;11.522;2023-06-04T14:19:31;4.05;;;3.10;;
61704;SDS011;47627;48.078;11.522;2023-06-04T14:21:57;4.63;;;3.08;;
61704;SDS011;47627;48.078;11.522;2023-06-04T14:24:22;3.75;;;3.20;;
61704;SDS011;47627;48.078;11.522;2023-06-04T14:26:47;5.70;;;3.20;;
61704;SDS011;47627;48.078;11.522;2023-06-04T14:29:12;6.20;;;3.27;;
61704;SDS011;47627;48.078;11.522;2023-06-04T14:31:38;5.22;;;3.03;;
61704;SDS011;47627;48.078;11.522;2023-06-04T14:34:03;5.72;;;3.13;;
61704;SDS011;47627;48.078;11.522;2023-06-04T14:36:29;5.97;;;3.47;;
61704;SDS011;47627;48.078;11.522;2023-06-04T14:38:54;4.63;;;3.58;;
61704;SDS011;47627;48.078;11.522;2023-06-04T14:41:19;5.70;;;3.40;;
61704;SDS011;47627;48.078;11.522;2023-06-04T14:43:44;6.40;;;3.30;;
61704;SDS011;47627;48.078;11.522;2023-06-04T14:46:10;4.00;;;3.47;;
61704;SDS011;47627;48.078;11.522;2023-06-04T14:48:35;3.83;;;3.17;;
61704;SDS011;47627;48.078;11.522;2023-06-04T14:51:00;6.68;;;3.58;;
61704;SDS011;47627;48.078;11.522;2023-06-04T14:53:25;6.03;;;2.97;;
61704;SDS011;47627;48.078;11.522;2023-06-04T14:55:51;3.87;;;3.10;;
61704;SDS011;47627;48.078;11.522;2023-06-04T14:58:17;5.90;;;3.00;;
61704;SDS011;47627;48.078;11.522;2023-06-04T15:00:43;4.82;;;3.50;;
61704;SDS011;47627;48.078;11.522;2023-06-04T15:03:08;4.77;;;2.93;;
61704;SDS011;47627;48.078;11.522;2023-06-04T15:05:33;5.97;;;3.13;;
61704;SDS011;47627;48.078;11.522;2023-06-04T15:07:59;7.15;;;4.00;;
61704;SDS011;47627;48.078;11.522;2023-06-04T15:10:24;3.85;;;3.03;;
61704;SDS011;47627;48.078;11.522;2023-06-04T15:12:50;3.92;;;3.10;;
61704;SDS011;47627;48.078;11.522;2023-06-04T15:15:15;4.78;;;3.20;;
61704;SDS011;47627;48.078;11.522;2023-06-04T15:17:40;6.20;;;3.55;;
61704;SDS011;47627;48.078;11.522;2023-06-04T15:20:06;4.70;;;3.10;;
61704;SDS011;47627;48.078;11.522;2023-06-04T15:22:32;4.97;;;3.05;;
61704;SDS011;47627;48.078;11.522;2023-06-04T15:24:57;4.57;;;3.38;;
61704;SDS011;47627;48.078;11.522;2023-06-04T15:27:22;6.77;;;3.03;;
61704;SDS011;47627;48.078;11.522;2023-06-04T15:29:47;4.97;;;3.35;;
61704;SDS011;47627;48.078;11.522;2023-06-04T15:32:13;5.13;;;3.50;;
61704;SDS011;47627;48.078;11.522;2023-06-04T15:34:38;5.30;;;3.30;;
61704;SDS011;47627;48.078;11.522;2023-06-04T15:37:03;7.20;;;3.30;;
61704;SDS011;47627;48.078;11.522;2023-06-04T15:39:28;4.72;;;3.47;;
61704;SDS011;47627;48.078;11.522;2023-06-04T15:41:54;4.75;;;3.03;;
61704;SDS011;47627;48.078;11.522;2023-06-04T15:44:19;5.88;;;3.60;;
61704;SDS011;47627;48.078;11.522;2023-06-04T15:46:45;3.50;;;3.20;;
61704;SDS011;47627;48.078;11.522;2023-06-04T15:49:10;3.77;;;3.37;;
61704;SDS011;47627;48.078;11.522;2023-06-04T15:51:35;5.15;;;3.15;;
61704;SDS011;47627;48.078;11.522;2023-06-04T15:54:01;3.80;;;3.40;;
61704;SDS011;47627;48.078;11.522;2023-06-04T15:56:27;4.18;;;3.03;;
61704;SDS011;47627;48.078;11.522;2023-06-04T15:58:52;4.90;;;3.00;;
61704;SDS011;47627;48.078;11.522;2023-06-04T16:01:17;5.47;;;3.17;;
61704;SDS011;47627;48.078;11.522;2023-06-04T16:03:42;7.10;;;2.90;;
61704;SDS011;47627;48.078;11.522;2023-06-04T16:06:07;7.00;;;3.30;;
61704;SDS011;47627;48.078;11.522;2023-06-04T16:08:33;4.90;;;3.17;;
61704;SDS011;47627;48.078;11.522;2023-06-04T16:10:58;4.63;;;3.37;;
61704;SDS011;47627;48.078;11.522;2023-06-04T16:13:23;5.43;;;3.05;;
61704;SDS011;47627;48.078;11.522;2023-06-04T16:15:51;5.50;;;3.10;;
61704;SDS011;47627;48.078;11.522;2023-06-04T16:18:16;4.07;;;3.30;;
61704;SDS011;47627;48.078;11.522;2023-06-04T16:20:41;4.85;;;3.28;;
61704;SDS011;47627;48.078;11.522;2023-06-04T16:23:07;6.32;;;3.47;;
61704;SDS011;47627;48.078;11.522;2023-06-04T16:25:32;7.80;;;3.60;;
61704;SDS011;47627;48.078;11.522;2023-06-04T16:27:57;8.07;;;3.80;;
61704;SDS011;47627;48.078;11.522;2023-06-04T16:30:23;4.57;;;3.22;;
61704;SDS011;47627;48.078;11.522;2023-06-04T16:32:48;6.13;;;3.80;;
61704;SDS011;47627;48.078;11.522;2023-06-04T16:35:13;5.63;;;3.58;;
61704;SDS011;47627;48.078;11.522;2023-06-04T16:37:38;4.05;;;3.08;;
61704;SDS011;47627;48.078;11.522;2023-06-04T16:40:04;6.97;;;3.37;;
61704;SDS011;47627;48.078;11.522;2023-06-04T16:42:29;4.72;;;3.72;;
61704;SDS011;47627;48.078;11.522;2023-06-04T16:44:54;4.32;;;3.53;;
61704;SDS011;47627;48.078;11.522;2023-06-04T16:47:20;5.15;;;3.28;;
61704;SDS011;47627;48.078;11.522;2023-06-04T16:49:46;5.82;;;3.30;;
61704;SDS011;47627;48.078;11.522;2023-06-04T16:52:11;5.93;;;3.47;;
61704;SDS011;47627;48.078;11.522;2023-06-04T16:54:37;4.97;;;3.30;;
61704;SDS011;47627;48.078;11.522;2023-06-04T16:57:02;6.45;;;3.40;;
61704;SDS011;47627;48.078;11.522;2023-06-04T16:59:27;6.90;;;3.35;;
61704;SDS011;47627;48.078;11.522;2023-06-04T17:01:55;6.95;;;3.63;;
61704;SDS011;47627;48.078;11.522;2023-06-04T17:04:21;5.93;;;3.80;;
61704;SDS011;47627;48.078;11.522;2023-06-04T17:06:46;4.93;;;3.63;;
61704;SDS011;47627;48.078;11.522;2023-06-04T17:09:11;5.60;;;4.00;;
61704;SDS011;47627;48.078;11.522;2023-06-04T17:11:36;5.03;;;3.90;;
61704;SDS011;47627;48.078;11.522;2023-06-04T17:14:04;6.15;;;3.70;;
61704;SDS011;47627;48.078;11.522;2023-06-04T17:16:29;6.07;;;4.15;;
61704;SDS011;47627;48.078;11.522;2023-06-04T17:18:54;5.37;;;4.30;;
61704;SDS011;47627;48.078;11.522;2023-06-04T17:21:19;6.25;;;4.15;;
61704;SDS011;47627;48.078;11.522;2023-06-04T17:23:45;6.40;;;4.15;;
61704;SDS011;47627;48.078;11.522;2023-06-04T17:26:10;5.35;;;3.78;;
61704;SDS011;47627;48.078;11.522;2023-06-04T17:28:36;4.85;;;4.18;;
61704;SDS011;47627;48.078;11.522;2023-06-04T17:31:01;6.85;;;4.07;;
61704;SDS011;47627;48.078;11.522;2023-06-04T17:33:27;11.65;;;3.92;;
61704;SDS011;47627;48.078;11.522;2023-06-04T17:35:52;6.85;;;3.95;;
61704;SDS011;47627;48.078;11.522;2023-06-04T17:38:17;5.70;;;4.03;;
61704;SDS011;47627;48.078;11.522;2023-06-04T17:40:42;6.20;;;4.10;;
61704;SDS011;47627;48.078;11.522;2023-06-04T17:43:08;5.10;;;4.07;;
61704;SDS011;47627;48.078;11.522;2023-06-04T17:45:33;4.72;;;4.20;;
61704;SDS011;47627;48.078;11.522;2023-06-04T17:47:58;7.60;;;4.43;;
61704;SDS011;47627;48.078;11.522;2023-06-04T17:50:24;6.95;;;4.30;;
61704;SDS011;47627;48.078;11.522;2023-06-04T17:52:49;6.20;;;4.07;;
61704;SDS011;47627;48.078;11.522;2023-06-04T17:55:15;7.68;;;4.18;;
61704;SDS011;47627;48.078;11.522;2023-06-04T17:57:40;5.80;;;3.80;;
61704;SDS011;47627;48.078;11.522;2023-06-04T18:00:06;7.40;;;4.43;;
61704;SDS011;47627;48.078;11.522;2023-06-04T18:02:37;8.50;;;4.70;;
61704;SDS011;47627;48.078;11.522;2023-06-04T18:05:02;5.55;;;4.82;;
61704;SDS011;47627;48.078;11.522;2023-06-04T18:07:29;7.75;;;4.90;;
61704;SDS011;47627;48.078;11.522;2023-06-04T18:09:54;7.03;;;4.57;;
61704;SDS011;47627;48.078;11.522;2023-06-04T18:12:20;5.85;;;4.55;;
61704;SDS011;47627;48.078;11.522;2023-06-04T18:14:45;5.55;;;4.60;;
61704;SDS011;47627;48.078;11.522;2023-06-04T18:17:10;6.18;;;4.60;;
61704;SDS011;47627;48.078;11.522;2023-06-04T18:19:35;8.30;;;4.65;;
61704;SDS011;47627;48.078;11.522;2023-06-04T18:22:01;5.90;;;4.23;;
61704;SDS011;47627;48.078;11.522;2023-06-04T18:24:27;5.80;;;4.47;;
61704;SDS011;47627;48.078;11.522;2023-06-04T18:26:53;4.68;;;4.13;;
61704;SDS011;47627;48.078;11.522;2023-06-04T18:29:19;5.72;;;4.47;;
61704;SDS011;47627;48.078;11.522;2023-06-04T18:31:44;5.53;;;4.40;;
61704;SDS011;47627;48.078;11.522;2023-06-04T18:34:09;4.47;;;4.03;;
61704;SDS011;47627;48.078;11.522;2023-06-04T18:36:38;6.97;;;4.90;;
61704;SDS011;47627;48.078;11.522;2023-06-04T18:39:03;6.00;;;4.57;;
61704;SDS011;47627;48.078;11.522;2023-06-04T18:41:28;5.72;;;4.45;;
61704;SDS011;47627;48.078;11.522;2023-06-04T18:43:54;6.03;;;4.05;;
61704;SDS011;47627;48.078;11.522;2023-06-04T18:46:19;5.85;;;4.13;;
61704;SDS011;47627;48.078;11.522;2023-06-04T18:48:45;6.90;;;4.55;;
61704;SDS011;47627;48.078;11.522;2023-06-04T18:51:12;7.32;;;4.75;;
61704;SDS011;47627;48.078;11.522;2023-06-04T18:53:37;8.05;;;5.00;;
61704;SDS011;47627;48.078;11.522;2023-06-04T18:56:03;7.93;;;5.00;;
61704;SDS011;47627;48.078;11.522;2023-06-04T18:58:28;5.97;;;4.53;;
61704;SDS011;47627;48.078;11.522;2023-06-04T19:00:53;6.07;;;4.90;;
61704;SDS011;47627;48.078;11.522;2023-06-04T19:03:19;7.65;;;4.43;;
61704;SDS011;47627;48.078;11.522;2023-06-04T19:05:47;6.78;;;5.13;;
